createdAt,value
2023-05-24T00:03:19.390Z,14.73
2023-05-24T00:06:28.373Z,14.64
2023-05-24T00:09:35.091Z,14.58
2023-05-24T00:12:41.197Z,14.54
2023-05-24T00:15:50.176Z,14.42
2023-05-24T00:18:56.229Z,14.29
2023-05-24T00:22:08.515Z,14.23
2023-05-24T00:25:14.475Z,14.30
2023-05-24T00:28:21.561Z,14.24
2023-05-24T00:31:27.459Z,14.26
2023-05-24T00:34:34.230Z,14.28
2023-05-24T00:37:45.489Z,14.26
2023-05-24T00:40:52.478Z,14.36
2023-05-24T00:43:59.699Z,14.26
2023-05-24T00:47:13.716Z,14.29
2023-05-24T00:50:21.030Z,14.42
2023-05-24T00:53:31.028Z,14.21
2023-05-24T00:56:37.899Z,14.15
2023-05-24T00:59:46.246Z,14.22
2023-05-24T01:02:52.960Z,14.23
2023-05-24T01:06:01.881Z,14.20
2023-05-24T01:09:28.987Z,14.13
2023-05-24T01:12:54.223Z,14.07
2023-05-24T01:16:11.490Z,14.13
2023-05-24T01:19:54.473Z,14.19
2023-05-24T01:23:34.829Z,14.14
2023-05-24T01:27:08.530Z,14.23
2023-05-24T01:30:32.031Z,13.96
2023-05-24T01:33:52.949Z,13.92
2023-05-24T01:37:14.199Z,13.90
2023-05-24T01:40:36.446Z,13.82
2023-05-24T01:44:13.502Z,13.88
2023-05-24T01:47:40.761Z,13.79
2023-05-24T01:50:55.943Z,13.81
2023-05-24T01:54:09.825Z,13.74
2023-05-24T01:57:17.955Z,13.79
2023-05-24T02:00:29.861Z,13.60
2023-05-24T02:03:38.312Z,13.67
2023-05-24T02:06:45.079Z,13.68
2023-05-24T02:09:51.076Z,13.80
2023-05-24T02:12:59.759Z,13.73
2023-05-24T02:16:11.155Z,13.72
2023-05-24T02:19:18.199Z,13.74
2023-05-24T02:22:24.388Z,13.66
2023-05-24T02:25:32.488Z,13.59
2023-05-24T02:28:38.520Z,13.59
2023-05-24T02:31:51.018Z,13.50
2023-05-24T02:34:59.518Z,13.48
2023-05-24T02:38:07.013Z,13.44
2023-05-24T02:41:18.172Z,13.39
2023-05-24T02:44:25.000Z,13.34
2023-05-24T02:47:33.786Z,13.20
2023-05-24T02:50:54.711Z,13.45
2023-05-24T02:54:17.977Z,13.48
2023-05-24T02:57:39.403Z,13.51
2023-05-24T03:01:00.307Z,13.59
2023-05-24T03:04:25.504Z,13.77
2023-05-24T03:07:48.974Z,13.74
2023-05-24T03:11:12.658Z,13.67
2023-05-24T03:14:35.591Z,13.72
2023-05-24T03:17:57.385Z,13.66
2023-05-24T03:21:21.756Z,13.45
2023-05-24T03:24:42.678Z,13.35
2023-05-24T03:28:09.502Z,13.36
2023-05-24T03:31:30.590Z,13.58
2023-05-24T03:34:51.943Z,13.45
2023-05-24T03:38:04.054Z,13.54
2023-05-24T03:41:23.111Z,13.59
2023-05-24T03:44:31.028Z,13.58
2023-05-24T03:47:38.641Z,13.54
2023-05-24T03:50:45.847Z,13.64
2023-05-24T03:53:54.391Z,13.49
2023-05-24T03:57:02.070Z,13.27
2023-05-24T04:00:13.001Z,13.57
2023-05-24T04:03:41.084Z,13.49
2023-05-24T04:07:02.070Z,13.36
2023-05-24T04:10:13.226Z,13.36
2023-05-24T04:13:19.419Z,13.07
2023-05-24T04:16:30.006Z,12.88
2023-05-24T04:19:36.210Z,13.03
2023-05-24T04:22:43.804Z,12.59
2023-05-24T04:25:54.301Z,12.47
2023-05-24T04:29:08.482Z,12.34
2023-05-24T04:32:15.190Z,12.41
2023-05-24T04:35:25.976Z,12.31
2023-05-24T04:38:36.355Z,11.93
2023-05-24T04:41:46.008Z,12.00
2023-05-24T04:44:52.508Z,12.01
2023-05-24T04:47:59.473Z,11.96
2023-05-24T04:51:06.044Z,12.08
2023-05-24T04:54:13.271Z,12.20
2023-05-24T04:57:22.728Z,12.20
2023-05-24T05:00:30.513Z,11.98
2023-05-24T05:03:51.741Z,11.98
2023-05-24T05:06:58.571Z,11.60
2023-05-24T05:10:29.515Z,11.37
2023-05-24T05:13:59.132Z,11.48
2023-05-24T05:17:05.034Z,11.60
2023-05-24T05:20:12.663Z,11.68
2023-05-24T05:23:19.883Z,11.86
2023-05-24T05:26:27.278Z,11.77
2023-05-24T05:29:35.871Z,11.45
2023-05-24T05:32:43.217Z,11.44
2023-05-24T05:35:49.335Z,11.21
2023-05-24T05:39:12.510Z,11.21
2023-05-24T05:42:33.366Z,11.13
2023-05-24T05:45:42.837Z,11.08
2023-05-24T05:48:48.769Z,10.99
2023-05-24T05:51:56.066Z,11.10
2023-05-24T05:55:02.437Z,11.09
2023-05-24T05:58:09.173Z,10.99
2023-05-24T06:01:19.229Z,11.24
2023-05-24T06:04:40.223Z,11.15
2023-05-24T06:07:47.774Z,11.25
2023-05-24T06:10:53.798Z,11.21
2023-05-24T06:14:00.591Z,11.31
2023-05-24T06:17:09.710Z,11.25
2023-05-24T06:20:17.400Z,11.22
2023-05-24T06:23:23.776Z,10.99
2023-05-24T06:26:30.694Z,10.88
2023-05-24T06:29:36.594Z,10.70
2023-05-24T06:32:45.965Z,10.84
2023-05-24T06:35:52.038Z,10.74
2023-05-24T06:38:59.067Z,10.76
2023-05-24T06:42:05.650Z,10.69
2023-05-24T06:45:16.675Z,11.10
2023-05-24T06:48:43.105Z,10.78
2023-05-24T06:52:04.217Z,10.87
2023-05-24T06:55:11.982Z,10.75
2023-05-24T06:58:18.031Z,10.67
2023-05-24T07:01:25.383Z,10.86
2023-05-24T07:04:34.036Z,10.91
2023-05-24T07:07:41.912Z,11.02
2023-05-24T07:10:48.080Z,11.15
2023-05-24T07:13:54.892Z,11.27
2023-05-24T07:17:01.078Z,11.30
2023-05-24T07:20:14.201Z,11.53
2023-05-24T07:23:20.459Z,11.71
2023-05-24T07:26:27.324Z,11.85
2023-05-24T07:29:35.277Z,11.96
2023-05-24T07:32:43.402Z,11.83
2023-05-24T07:35:54.153Z,11.86
2023-05-24T07:39:20.778Z,11.94
2023-05-24T07:42:26.893Z,11.82
2023-05-24T07:45:34.207Z,11.69
2023-05-24T07:48:40.212Z,11.46
2023-05-24T07:51:49.821Z,11.54
2023-05-24T07:54:56.168Z,11.39
2023-05-24T07:58:02.869Z,11.53
2023-05-24T08:01:09.217Z,11.48
2023-05-24T08:04:28.585Z,11.53
2023-05-24T08:07:37.176Z,11.76
2023-05-24T08:10:43.882Z,11.91
2023-05-24T08:13:50.166Z,11.81
2023-05-24T08:16:56.928Z,11.85
2023-05-24T08:20:17.289Z,11.43
2023-05-24T08:23:32.208Z,11.64
2023-05-24T08:26:38.440Z,11.23
2023-05-24T08:29:45.220Z,11.27
2023-05-24T08:32:51.453Z,11.62
2023-05-24T08:36:04.553Z,11.44
2023-05-24T08:39:24.103Z,11.73
2023-05-24T08:42:34.110Z,11.71
2023-05-24T08:45:42.799Z,12.07
2023-05-24T08:48:55.789Z,12.34
2023-05-24T08:52:08.585Z,12.24
2023-05-24T08:55:33.062Z,12.49
2023-05-24T08:58:42.046Z,12.59
2023-05-24T09:01:57.595Z,12.02
2023-05-24T09:05:17.300Z,12.11
2023-05-24T09:08:25.539Z,12.08
2023-05-24T09:11:39.491Z,12.01
2023-05-24T09:14:51.756Z,12.10
2023-05-24T09:17:57.961Z,11.97
2023-05-24T09:21:04.599Z,11.91
2023-05-24T09:24:14.433Z,11.60
2023-05-24T09:27:25.169Z,11.79
2023-05-24T09:30:31.167Z,11.99
2023-05-24T09:33:44.120Z,12.00
2023-05-24T09:36:51.803Z,12.04
2023-05-24T09:39:59.096Z,11.60
2023-05-24T09:43:13.234Z,11.57
2023-05-24T09:46:28.607Z,11.50
2023-05-24T09:49:42.398Z,11.58
2023-05-24T09:52:49.795Z,11.88
2023-05-24T09:55:58.715Z,11.60
2023-05-24T09:59:14.345Z,11.96
2023-05-24T10:02:22.186Z,12.17
2023-05-24T10:05:30.436Z,12.33
2023-05-24T10:08:39.386Z,12.03
2023-05-24T10:11:47.462Z,12.65
2023-05-24T10:15:06.864Z,12.62
2023-05-24T10:18:15.079Z,12.85
2023-05-24T10:21:24.996Z,13.08
2023-05-24T10:24:42.110Z,13.29
2023-05-24T10:27:51.880Z,13.40
2023-05-24T10:31:22.363Z,13.20
2023-05-24T10:34:31.149Z,13.22
2023-05-24T10:37:39.479Z,12.94
2023-05-24T10:40:46.725Z,13.15
2023-05-24T10:44:08.759Z,13.05
2023-05-24T10:47:35.887Z,12.68
2023-05-24T10:50:46.038Z,12.86
2023-05-24T10:53:53.718Z,12.82
2023-05-24T10:57:15.896Z,12.97
2023-05-24T11:00:35.637Z,12.79
2023-05-24T11:04:12.436Z,13.01
2023-05-24T11:07:21.933Z,12.63
2023-05-24T11:10:36.109Z,12.88
2023-05-24T11:13:44.643Z,12.90
2023-05-24T11:16:54.929Z,13.60
2023-05-24T11:20:06.403Z,13.44
2023-05-24T11:23:21.761Z,13.54
2023-05-24T11:26:29.350Z,13.62
2023-05-24T11:29:38.293Z,13.62
2023-05-24T11:32:44.823Z,14.01
2023-05-24T11:35:58.313Z,14.14
2023-05-24T11:39:07.690Z,14.08
2023-05-24T11:42:15.038Z,13.90
2023-05-24T11:45:22.960Z,13.96
2023-05-24T11:48:33.069Z,14.10
2023-05-24T11:51:41.715Z,14.02
2023-05-24T11:54:48.625Z,14.26
2023-05-24T11:58:02.294Z,14.01
2023-05-24T12:01:36.706Z,14.50
2023-05-24T12:04:42.997Z,14.37
2023-05-24T12:08:12.356Z,14.27
2023-05-24T12:11:18.910Z,14.46
2023-05-24T12:14:31.542Z,14.55
2023-05-24T12:17:37.743Z,14.84
2023-05-24T12:20:45.915Z,14.63
2023-05-24T12:23:55.127Z,14.50
2023-05-24T12:27:07.047Z,14.40
2023-05-24T12:30:20.414Z,14.43
2023-05-24T12:33:27.848Z,14.14
2023-05-24T12:36:34.890Z,14.02
2023-05-24T12:39:45.011Z,13.77
2023-05-24T12:43:01.431Z,13.69
2023-05-24T12:46:46.153Z,13.90
2023-05-24T12:49:55.068Z,13.74
2023-05-24T12:53:08.672Z,13.51
2023-05-24T12:56:20.652Z,13.65
2023-05-24T12:59:28.962Z,13.78
2023-05-24T13:02:36.945Z,13.77
2023-05-24T13:05:45.003Z,13.81
2023-05-24T13:08:51.254Z,13.52
2023-05-24T13:12:07.701Z,13.26
2023-05-24T13:15:28.879Z,13.21
2023-05-24T13:18:37.702Z,13.36
2023-05-24T13:21:44.013Z,13.06
2023-05-24T13:24:50.926Z,12.93
2023-05-24T13:28:00.344Z,13.03
2023-05-24T13:31:08.843Z,13.19
2023-05-24T13:34:18.020Z,13.11
2023-05-24T13:37:31.792Z,12.95
2023-05-24T13:40:40.822Z,12.86
2023-05-24T13:43:51.395Z,13.06
2023-05-24T13:46:57.621Z,13.10
2023-05-24T13:50:08.174Z,13.20
2023-05-24T13:53:17.625Z,13.33
2023-05-24T13:56:26.316Z,13.17
2023-05-24T13:59:34.986Z,13.20
2023-05-24T14:02:43.613Z,13.17
2023-05-24T14:05:49.697Z,13.21
2023-05-24T14:08:57.148Z,13.10
2023-05-24T14:12:09.721Z,13.35
2023-05-24T14:15:24.452Z,13.54
2023-05-24T14:18:30.657Z,13.09
2023-05-24T14:21:37.758Z,12.97
2023-05-24T14:24:45.478Z,13.21
2023-05-24T14:27:52.333Z,13.18
2023-05-24T14:31:03.978Z,13.13
2023-05-24T14:34:11.983Z,12.89
2023-05-24T14:37:20.611Z,12.71
2023-05-24T14:40:27.611Z,12.79
2023-05-24T14:43:33.624Z,12.71
2023-05-24T14:46:44.380Z,12.95
2023-05-24T14:49:50.571Z,12.94
2023-05-24T14:52:57.495Z,13.13
2023-05-24T14:56:05.494Z,13.27
2023-05-24T14:59:17.710Z,13.19
2023-05-24T15:02:26.484Z,13.24
2023-05-24T15:05:37.296Z,13.27
2023-05-24T15:08:43.588Z,13.09
2023-05-24T15:11:51.662Z,13.17
2023-05-24T15:14:58.286Z,13.20
2023-05-24T15:18:08.464Z,13.18
2023-05-24T15:21:14.655Z,12.92
2023-05-24T15:24:22.032Z,12.92
2023-05-24T15:27:27.998Z,13.03
2023-05-24T15:30:34.854Z,12.90
2023-05-24T15:33:43.441Z,12.93
2023-05-24T15:36:50.341Z,12.92
2023-05-24T15:39:58.717Z,12.85
2023-05-24T15:43:09.149Z,12.90
2023-05-24T15:46:15.139Z,12.84
2023-05-24T15:49:26.257Z,12.83
2023-05-24T15:52:32.147Z,12.69
2023-05-24T15:55:39.423Z,12.40
2023-05-24T15:58:54.126Z,12.42
2023-05-24T16:06:56.290Z,12.70
2023-05-24T16:10:03.257Z,12.57
2023-05-24T16:13:13.008Z,12.72
2023-05-24T16:16:25.105Z,12.74
2023-05-24T16:19:31.298Z,12.87
2023-05-24T16:22:40.847Z,12.99
2023-05-24T16:25:49.637Z,12.91
2023-05-24T16:28:56.546Z,12.67
2023-05-24T16:32:08.323Z,12.62
2023-05-24T16:35:15.457Z,12.62
2023-05-24T16:38:29.092Z,12.74
2023-05-24T16:41:37.950Z,12.58
2023-05-24T16:44:44.023Z,12.75
2023-05-24T16:47:51.373Z,12.59
2023-05-24T16:50:58.150Z,12.62
2023-05-24T16:54:09.542Z,12.53
2023-05-24T16:57:15.692Z,12.52
2023-05-24T17:00:25.082Z,12.71
2023-05-24T17:03:32.477Z,12.75
2023-05-24T17:06:39.512Z,12.66
2023-05-24T17:09:50.497Z,12.59
2023-05-24T17:12:57.462Z,12.42
2023-05-24T17:16:03.757Z,12.27
2023-05-24T17:19:15.074Z,12.41
2023-05-24T17:22:21.760Z,12.43
2023-05-24T17:25:39.836Z,12.23
2023-05-24T17:28:53.557Z,12.17
2023-05-24T17:32:03.253Z,12.26
2023-05-24T17:35:10.146Z,12.33
2023-05-24T17:38:17.041Z,12.20
2023-05-24T17:41:26.915Z,12.13
2023-05-24T17:44:34.453Z,12.25
2023-05-24T17:47:40.783Z,12.22
2023-05-24T17:50:48.403Z,12.19
2023-05-24T17:53:54.507Z,12.28
2023-05-24T17:57:04.669Z,12.22
2023-05-24T18:00:12.863Z,12.31
2023-05-24T18:03:26.578Z,12.28
2023-05-24T18:06:33.832Z,12.26
2023-05-24T18:09:40.629Z,12.10
2023-05-24T18:12:49.382Z,12.12
2023-05-24T18:15:57.226Z,12.03
2023-05-24T18:19:07.647Z,12.12
2023-05-24T18:22:21.549Z,12.10
2023-05-24T18:25:34.016Z,12.15
2023-05-24T18:28:45.190Z,12.23
2023-05-24T18:31:52.087Z,12.33
2023-05-24T18:35:00.434Z,12.19
2023-05-24T18:38:23.224Z,12.22
2023-05-24T18:41:33.166Z,12.05
2023-05-24T18:44:41.777Z,12.13
2023-05-24T18:47:48.664Z,12.17
2023-05-24T18:50:55.103Z,12.03
2023-05-24T18:54:02.125Z,12.05
2023-05-24T18:57:27.830Z,12.05
2023-05-24T19:00:42.557Z,12.07
2023-05-24T19:03:50.735Z,11.99
2023-05-24T19:06:57.857Z,12.02
2023-05-24T19:10:10.391Z,11.94
2023-05-24T19:13:17.977Z,11.89
2023-05-24T19:16:29.431Z,11.97
2023-05-24T19:19:39.572Z,11.99
2023-05-24T19:22:45.740Z,12.00
2023-05-24T19:26:10.878Z,11.99
2023-05-24T19:29:37.693Z,11.99
2023-05-24T19:32:47.707Z,12.03
2023-05-24T19:35:53.700Z,12.00
2023-05-24T19:39:00.652Z,11.95
2023-05-24T19:42:07.211Z,11.93
2023-05-24T19:45:15.491Z,12.06
2023-05-24T19:48:26.583Z,11.91
2023-05-24T19:51:33.505Z,11.98
2023-05-24T19:54:39.791Z,11.99
2023-05-24T19:57:46.850Z,12.00
2023-05-24T20:00:53.521Z,11.96
2023-05-24T20:04:09.934Z,11.97
2023-05-24T20:07:25.725Z,11.91
2023-05-24T20:10:36.038Z,11.85
2023-05-24T20:13:42.516Z,11.88
2023-05-24T20:16:49.362Z,11.79
2023-05-24T20:19:58.048Z,11.88
2023-05-24T20:23:05.236Z,11.83
2023-05-24T20:26:11.332Z,11.82
2023-05-24T20:29:18.309Z,11.91
2023-05-24T20:32:24.585Z,11.94
2023-05-24T20:35:40.922Z,11.85
2023-05-24T20:38:58.791Z,11.83
2023-05-24T20:42:05.678Z,11.78
2023-05-24T20:45:13.650Z,11.84
2023-05-24T20:48:20.565Z,11.71
2023-05-24T20:51:36.840Z,11.79
2023-05-24T20:54:43.899Z,11.75
2023-05-24T20:57:50.412Z,11.65
2023-05-24T21:00:57.480Z,11.61
2023-05-24T21:04:03.983Z,11.60
2023-05-24T21:07:13.618Z,11.78
2023-05-24T21:10:21.829Z,11.75
2023-05-24T21:13:30.614Z,11.71
2023-05-24T21:16:36.837Z,11.71
2023-05-24T21:19:44.258Z,11.70
2023-05-24T21:22:59.509Z,11.70
2023-05-24T21:26:06.536Z,11.72
2023-05-24T21:29:14.985Z,11.74
2023-05-24T21:32:34.947Z,11.66
2023-05-24T21:35:41.526Z,11.66
2023-05-24T21:38:51.502Z,11.65
2023-05-24T21:41:58.151Z,11.88
2023-05-24T21:45:04.970Z,11.70
2023-05-24T21:48:11.934Z,11.85
2023-05-24T21:51:18.777Z,11.80
2023-05-24T21:54:29.488Z,11.62
2023-05-24T21:57:36.291Z,11.68
2023-05-24T22:00:42.284Z,11.68
2023-05-24T22:03:49.163Z,11.50
2023-05-24T22:06:56.079Z,11.46
2023-05-24T22:10:13.562Z,11.47
2023-05-24T22:13:19.723Z,11.33
2023-05-24T22:16:33.013Z,11.31
2023-05-24T22:19:41.575Z,11.28
2023-05-24T22:22:53.853Z,11.11
2023-05-24T22:26:08.953Z,11.05
2023-05-24T22:29:16.664Z,11.12
2023-05-24T22:32:25.912Z,11.15
2023-05-24T22:35:33.329Z,11.24
2023-05-24T22:38:39.313Z,11.09
2023-05-24T22:41:48.700Z,11.19
2023-05-24T22:44:54.737Z,11.14
2023-05-24T22:48:03.625Z,11.20
2023-05-24T22:51:09.690Z,11.09
2023-05-24T22:54:17.024Z,11.09
2023-05-24T22:57:29.253Z,11.22
2023-05-24T23:00:38.787Z,10.98
2023-05-24T23:03:44.712Z,11.15
2023-05-24T23:06:53.447Z,10.99
2023-05-24T23:10:12.946Z,11.08
2023-05-24T23:13:24.933Z,11.09
2023-05-24T23:16:40.352Z,10.89
2023-05-24T23:19:56.733Z,10.89
2023-05-24T23:23:03.714Z,10.96
2023-05-24T23:26:18.091Z,10.88
2023-05-24T23:29:32.895Z,10.95
2023-05-24T23:32:39.745Z,10.81
2023-05-24T23:35:45.918Z,10.90
2023-05-24T23:38:52.922Z,10.77
2023-05-24T23:41:58.924Z,10.61
2023-05-24T23:45:15.665Z,10.98
2023-05-24T23:48:23.551Z,10.92
2023-05-24T23:51:30.519Z,10.94
2023-05-24T23:54:36.495Z,10.89
2023-05-24T23:57:43.315Z,10.78
